createdAt,value
2023-04-16T00:01:33.883Z,10.17
2023-04-16T00:04:06.794Z,10.87
2023-04-16T00:06:35.668Z,10.83
2023-04-16T00:09:04.497Z,11.27
2023-04-16T00:11:33.254Z,10.83
2023-04-16T00:14:01.924Z,10.70
2023-04-16T00:16:30.948Z,10.67
2023-04-16T00:18:59.688Z,10.70
2023-04-16T00:21:30.094Z,10.80
2023-04-16T00:23:58.894Z,10.93
2023-04-16T00:26:27.522Z,10.37
2023-04-16T00:28:56.477Z,9.93
2023-04-16T00:31:29.915Z,11.33
2023-04-16T00:33:59.371Z,10.40
2023-04-16T00:36:30.348Z,10.17
2023-04-16T00:38:59.167Z,10.43
2023-04-16T00:41:27.983Z,9.93
2023-04-16T00:43:56.611Z,10.33
2023-04-16T00:46:27.091Z,11.37
2023-04-16T00:48:56.948Z,10.33
2023-04-16T00:51:27.152Z,9.90
2023-04-16T00:53:59.377Z,10.27
2023-04-16T00:56:29.498Z,10.60
2023-04-16T00:58:58.313Z,10.67
2023-04-16T01:01:27.347Z,10.73
2023-04-16T01:03:57.130Z,10.60
2023-04-16T01:06:26.101Z,10.37
2023-04-16T01:08:54.853Z,10.77
2023-04-16T01:11:25.828Z,11.60
2023-04-16T01:13:54.559Z,11.13
2023-04-16T01:16:23.365Z,11.30
2023-04-16T01:18:52.164Z,11.50
2023-04-16T01:21:23.056Z,10.00
2023-04-16T01:23:51.788Z,11.43
2023-04-16T01:26:20.564Z,10.40
2023-04-16T01:28:49.400Z,11.63
2023-04-16T01:31:18.233Z,10.53
2023-04-16T01:34:05.639Z,11.00
2023-04-16T01:36:38.083Z,11.43
2023-04-16T01:39:06.960Z,12.07
2023-04-16T01:41:36.245Z,11.37
2023-04-16T01:44:06.502Z,11.40
2023-04-16T01:46:36.849Z,11.10
2023-04-16T01:49:07.604Z,10.63
2023-04-16T01:51:37.855Z,11.50
2023-04-16T01:54:06.627Z,12.47
2023-04-16T01:56:35.403Z,11.50
2023-04-16T01:59:04.085Z,11.47
2023-04-16T02:01:38.518Z,11.77
2023-04-16T02:04:08.380Z,11.03
2023-04-16T02:06:38.573Z,11.53
2023-04-16T02:09:07.587Z,11.47
2023-04-16T02:11:38.674Z,11.13
2023-04-16T02:14:08.604Z,11.73
2023-04-16T02:16:38.078Z,11.30
2023-04-16T02:19:37.212Z,11.60
2023-04-16T02:22:07.904Z,11.83
2023-04-16T02:24:36.702Z,11.80
2023-04-16T02:27:09.460Z,11.93
2023-04-16T02:29:38.202Z,12.20
2023-04-16T02:32:14.057Z,13.10
2023-04-16T02:34:46.352Z,12.80
2023-04-16T02:37:17.329Z,13.10
2023-04-16T02:39:47.494Z,11.80
2023-04-16T02:42:16.882Z,12.77
2023-04-16T02:44:46.756Z,12.93
2023-04-16T02:47:15.630Z,13.33
2023-04-16T02:49:44.323Z,12.87
2023-04-16T02:52:15.109Z,13.13
2023-04-16T02:54:45.857Z,12.93
2023-04-16T02:57:14.497Z,13.77
2023-04-16T02:59:43.235Z,11.87
2023-04-16T03:02:12.263Z,11.63
2023-04-16T03:04:41.008Z,12.20
2023-04-16T03:07:09.912Z,12.77
2023-04-16T03:09:38.650Z,11.73
2023-04-16T03:12:08.958Z,11.90
2023-04-16T03:14:37.740Z,11.40
2023-04-16T03:17:06.474Z,11.60
2023-04-16T03:19:35.216Z,11.77
2023-04-16T03:22:03.897Z,12.13
2023-04-16T03:24:32.594Z,11.87
2023-04-16T03:27:02.097Z,12.30
2023-04-16T03:29:33.738Z,12.73
2023-04-16T03:32:02.605Z,12.63
2023-04-16T03:34:31.263Z,12.17
2023-04-16T03:37:00.287Z,12.20
2023-04-16T03:39:28.967Z,11.60
2023-04-16T03:41:57.820Z,11.70
2023-04-16T03:44:26.528Z,12.30
2023-04-16T03:46:57.095Z,11.33
2023-04-16T03:49:25.919Z,10.83
2023-04-16T03:51:54.677Z,11.20
2023-04-16T03:54:23.465Z,11.43
2023-04-16T03:57:00.125Z,11.17
2023-04-16T03:59:28.928Z,10.73
2023-04-16T04:01:59.240Z,11.00
2023-04-16T04:04:28.301Z,11.07
2023-04-16T04:06:57.058Z,11.03
2023-04-16T04:09:28.280Z,11.13
2023-04-16T04:11:57.108Z,10.83
2023-04-16T04:14:25.861Z,11.53
2023-04-16T04:16:54.768Z,11.53
2023-04-16T04:19:25.467Z,11.47
2023-04-16T04:21:54.713Z,11.60
2023-04-16T04:24:24.553Z,11.50
2023-04-16T04:26:54.436Z,11.07
2023-04-16T04:29:24.932Z,10.63
2023-04-16T04:31:55.312Z,11.40
2023-04-16T04:34:27.256Z,10.87
2023-04-16T04:37:01.068Z,11.57
2023-04-16T04:39:31.156Z,11.87
2023-04-16T04:42:03.208Z,11.23
2023-04-16T04:44:32.446Z,10.87
2023-04-16T04:47:01.923Z,99.10
2023-04-16T04:49:33.925Z,144.33
2023-04-16T04:52:03.292Z,93.73
2023-04-16T04:54:34.688Z,54.70
2023-04-16T04:57:03.879Z,29.10
2023-04-16T04:59:33.410Z,29.80
2023-04-16T05:02:03.584Z,18.57
2023-04-16T05:04:34.046Z,16.10
2023-04-16T05:07:03.309Z,15.10
2023-04-16T05:09:32.876Z,13.37
2023-04-16T05:12:02.143Z,11.30
2023-04-16T05:14:32.395Z,13.43
2023-04-16T05:17:01.785Z,12.70
2023-04-16T05:19:33.651Z,12.23
2023-04-16T05:22:02.798Z,12.47
2023-04-16T05:24:34.748Z,12.60
2023-04-16T05:27:03.565Z,13.00
2023-04-16T05:29:32.312Z,13.03
2023-04-16T05:32:02.122Z,12.77
2023-04-16T05:34:31.170Z,12.13
2023-04-16T05:37:01.361Z,11.70
2023-04-16T05:39:34.852Z,11.93
2023-04-16T05:42:03.800Z,12.53
2023-04-16T05:44:32.617Z,13.00
2023-04-16T05:47:02.730Z,12.00
2023-04-16T05:49:31.645Z,11.53
2023-04-16T05:52:01.926Z,12.77
2023-04-16T05:54:30.949Z,17.07
2023-04-16T05:56:59.663Z,18.33
2023-04-16T05:59:29.368Z,17.20
2023-04-16T06:01:58.425Z,18.17
2023-04-16T06:04:27.234Z,14.87
2023-04-16T06:06:56.116Z,15.40
2023-04-16T06:09:27.040Z,13.03
2023-04-16T06:11:56.388Z,13.03
2023-04-16T06:14:25.492Z,15.47
2023-04-16T06:17:05.188Z,17.03
2023-04-16T06:19:34.329Z,14.53
2023-04-16T06:22:03.219Z,16.33
2023-04-16T06:24:33.524Z,15.87
2023-04-16T06:27:04.278Z,16.50
2023-04-16T06:29:40.673Z,18.40
2023-04-16T06:32:11.955Z,18.03
2023-04-16T06:34:41.639Z,14.53
2023-04-16T06:37:11.521Z,13.63
2023-04-16T06:39:42.615Z,13.00
2023-04-16T06:42:12.181Z,14.43
2023-04-16T06:44:45.477Z,12.53
2023-04-16T06:47:26.307Z,14.17
2023-04-16T06:49:56.542Z,12.47
2023-04-16T06:52:28.400Z,12.23
2023-04-16T06:54:59.134Z,12.30
2023-04-16T06:57:32.585Z,12.83
2023-04-16T07:00:02.324Z,13.03
2023-04-16T07:02:32.756Z,15.10
2023-04-16T07:05:04.982Z,14.77
2023-04-16T07:07:34.374Z,14.53
2023-04-16T07:10:11.083Z,12.87
2023-04-16T07:12:48.553Z,14.93
2023-04-16T07:15:18.437Z,15.57
2023-04-16T07:17:50.211Z,15.10
2023-04-16T07:20:19.287Z,13.70
2023-04-16T07:22:49.832Z,13.10
2023-04-16T07:25:21.027Z,12.10
2023-04-16T07:27:52.497Z,12.97
2023-04-16T07:30:22.837Z,12.30
2023-04-16T07:32:53.619Z,12.37
2023-04-16T07:35:22.971Z,12.40
2023-04-16T07:37:54.733Z,12.63
2023-04-16T07:40:26.638Z,12.07
2023-04-16T07:42:57.075Z,12.23
2023-04-16T07:48:14.869Z,11.43
2023-04-16T07:50:45.367Z,11.17
2023-04-16T07:53:14.866Z,11.57
2023-04-16T07:55:45.214Z,11.50
2023-04-16T07:58:14.607Z,10.40
2023-04-16T08:00:43.762Z,9.37
2023-04-16T08:03:13.012Z,11.93
2023-04-16T08:05:42.479Z,9.80
2023-04-16T08:08:11.643Z,9.77
2023-04-16T08:10:41.037Z,9.70
2023-04-16T08:13:14.147Z,9.77
2023-04-16T08:15:43.633Z,9.93
2023-04-16T08:18:15.802Z,8.30
2023-04-16T08:20:45.336Z,7.40
2023-04-16T08:23:14.607Z,6.87
2023-04-16T08:25:43.921Z,8.13
2023-04-16T08:28:14.827Z,9.23
2023-04-16T08:30:46.204Z,8.30
2023-04-16T08:33:15.659Z,8.43
2023-04-16T08:35:44.900Z,9.20
2023-04-16T08:38:15.243Z,9.40
2023-04-16T08:40:44.844Z,9.20
2023-04-16T08:43:19.481Z,8.33
2023-04-16T08:45:50.616Z,8.27
2023-04-16T08:48:23.047Z,7.67
2023-04-16T08:50:55.615Z,8.40
2023-04-16T08:53:34.162Z,8.97
2023-04-16T08:56:11.162Z,9.20
2023-04-16T08:58:43.791Z,10.03
2023-04-16T09:01:15.752Z,11.67
2023-04-16T09:03:48.516Z,11.43
2023-04-16T09:06:20.922Z,11.57
2023-04-16T09:08:51.995Z,11.70
2023-04-16T09:11:22.415Z,11.40
2023-04-16T09:13:55.743Z,12.90
2023-04-16T09:16:28.074Z,13.37
2023-04-16T09:18:57.421Z,14.47
2023-04-16T09:21:28.820Z,15.67
2023-04-16T09:24:03.467Z,14.80
2023-04-16T09:26:37.652Z,14.63
2023-04-16T09:29:10.196Z,14.20
2023-04-16T09:31:44.119Z,16.73
2023-04-16T09:34:14.355Z,15.23
2023-04-16T09:36:45.727Z,14.60
2023-04-16T09:39:21.151Z,15.57
2023-04-16T09:41:53.197Z,13.53
2023-04-16T09:44:42.009Z,13.73
2023-04-16T09:47:13.113Z,14.00
2023-04-16T09:49:47.875Z,13.50
2023-04-16T09:52:21.377Z,14.27
2023-04-16T09:54:55.223Z,13.57
2023-04-16T09:57:26.608Z,13.13
2023-04-16T10:00:07.241Z,11.60
2023-04-16T10:02:39.611Z,10.20
2023-04-16T10:05:10.923Z,11.50
2023-04-16T10:07:42.149Z,10.87
2023-04-16T10:10:16.505Z,9.87
2023-04-16T10:12:45.276Z,10.70
2023-04-16T10:15:17.236Z,10.63
2023-04-16T10:17:47.145Z,10.37
2023-04-16T10:20:17.670Z,10.53
2023-04-16T10:22:47.341Z,10.20
2023-04-16T10:25:16.724Z,9.17
2023-04-16T10:27:46.425Z,9.70
2023-04-16T10:30:18.874Z,8.87
2023-04-16T10:32:48.615Z,8.10
2023-04-16T10:35:21.083Z,8.50
2023-04-16T10:37:51.586Z,9.73
2023-04-16T10:40:30.348Z,10.50
2023-04-16T10:43:01.634Z,9.13
2023-04-16T10:45:39.465Z,10.40
2023-04-16T10:48:10.089Z,8.73
2023-04-16T10:50:39.849Z,7.83
2023-04-16T10:53:25.119Z,8.43
2023-04-16T10:56:14.573Z,8.67
2023-04-16T10:58:44.105Z,8.80
2023-04-16T11:01:16.994Z,9.70
2023-04-16T11:03:49.010Z,9.83
2023-04-16T11:06:26.516Z,7.83
2023-04-16T11:08:56.273Z,7.50
2023-04-16T11:11:25.423Z,8.33
2023-04-16T11:14:09.108Z,8.40
2023-04-16T11:16:42.949Z,8.50
2023-04-16T11:19:19.167Z,7.57
2023-04-16T11:21:48.429Z,7.03
2023-04-16T11:24:17.502Z,7.30
2023-04-16T11:26:46.353Z,9.23
2023-04-16T11:29:17.215Z,9.73
2023-04-16T11:31:53.245Z,8.47
2023-04-16T11:34:23.476Z,8.17
2023-04-16T11:36:54.169Z,8.40
2023-04-16T11:39:24.288Z,8.03
2023-04-16T11:41:53.938Z,8.33
2023-04-16T11:44:28.195Z,7.90
2023-04-16T11:47:08.066Z,7.50
2023-04-16T11:49:37.668Z,6.97
2023-04-16T11:52:07.300Z,7.37
2023-04-16T11:54:37.271Z,7.37
2023-04-16T11:57:06.287Z,7.20
2023-04-16T11:59:37.102Z,7.40
2023-04-16T12:02:40.136Z,6.13
2023-04-16T12:05:30.414Z,6.50
2023-04-16T12:08:00.596Z,6.43
2023-04-16T12:10:29.809Z,6.13
2023-04-16T12:13:15.416Z,4.63
2023-04-16T12:15:50.891Z,5.13
2023-04-16T12:18:22.527Z,4.27
2023-04-16T12:20:52.091Z,5.13
2023-04-16T12:23:29.137Z,4.27
2023-04-16T12:26:02.699Z,5.10
2023-04-16T12:28:34.361Z,5.80
2023-04-16T12:31:05.851Z,5.40
2023-04-16T12:33:34.910Z,5.13
2023-04-16T12:36:18.528Z,6.17
2023-04-16T12:38:47.253Z,5.47
2023-04-16T12:41:17.025Z,6.10
2023-04-16T12:43:45.795Z,6.43
2023-04-16T12:46:15.977Z,6.43
2023-04-16T12:48:44.813Z,6.60
2023-04-16T12:51:13.700Z,6.80
2023-04-16T12:53:42.384Z,6.70
2023-04-16T12:56:11.040Z,6.93
2023-04-16T12:58:39.674Z,7.13
2023-04-16T13:01:08.478Z,6.87
2023-04-16T13:03:38.846Z,6.33
2023-04-16T13:06:07.735Z,5.73
2023-04-16T13:08:37.428Z,6.00
2023-04-16T13:11:06.308Z,6.00
2023-04-16T13:13:35.163Z,5.77
2023-04-16T13:16:06.887Z,5.47
2023-04-16T13:18:38.141Z,5.90
2023-04-16T13:21:06.999Z,5.83
2023-04-16T13:23:36.654Z,5.40
2023-04-16T13:26:05.490Z,5.93
2023-04-16T13:28:34.238Z,5.93
2023-04-16T13:31:05.726Z,5.60
2023-04-16T13:33:35.357Z,5.73
2023-04-16T13:36:05.834Z,5.17
2023-04-16T13:38:34.612Z,5.13
2023-04-16T13:41:03.311Z,4.90
2023-04-16T13:43:32.179Z,5.13
2023-04-16T13:46:01.182Z,6.00
2023-04-16T13:48:30.865Z,6.67
2023-04-16T13:50:59.837Z,6.70
2023-04-16T13:53:30.026Z,6.50
2023-04-16T13:55:58.967Z,6.73
2023-04-16T13:58:28.878Z,7.03
2023-04-16T14:00:58.377Z,7.10
2023-04-16T14:03:28.125Z,7.33
2023-04-16T14:05:57.092Z,6.67
2023-04-16T14:08:27.163Z,6.47
2023-04-16T14:10:58.380Z,7.80
2023-04-16T14:13:27.693Z,6.03
2023-04-16T14:15:57.228Z,5.77
2023-04-16T14:18:26.005Z,5.07
2023-04-16T14:20:56.959Z,5.07
2023-04-16T14:23:26.683Z,4.37
2023-04-16T14:25:56.983Z,4.67
2023-04-16T14:28:25.693Z,4.50
2023-04-16T14:30:54.487Z,4.00
2023-04-16T14:33:23.830Z,4.30
2023-04-16T14:35:52.738Z,4.03
2023-04-16T14:38:21.501Z,3.67
2023-04-16T14:40:50.604Z,4.23
2023-04-16T14:43:20.926Z,4.17
2023-04-16T14:45:49.731Z,4.40
2023-04-16T14:48:18.647Z,4.47
2023-04-16T14:50:47.564Z,4.53
2023-04-16T14:53:16.360Z,6.40
2023-04-16T14:55:45.476Z,5.10
2023-04-16T14:58:14.219Z,5.67
2023-04-16T15:00:44.762Z,5.00
2023-04-16T15:03:13.754Z,4.80
2023-04-16T15:05:42.669Z,4.30
2023-04-16T15:08:11.387Z,4.67
2023-04-16T15:10:42.533Z,3.80
2023-04-16T15:13:12.358Z,4.37
2023-04-16T15:15:41.174Z,4.90
2023-04-16T15:18:11.732Z,4.27
2023-04-16T15:20:40.583Z,4.00
2023-04-16T15:23:09.413Z,3.70
2023-04-16T15:25:38.161Z,3.53
2023-04-16T15:28:07.061Z,3.93
2023-04-16T15:30:35.992Z,3.90
2023-04-16T15:33:04.807Z,4.03
2023-04-16T15:35:36.680Z,3.77
2023-04-16T15:38:06.160Z,3.53
2023-04-16T15:40:35.162Z,3.40
2023-04-16T15:43:04.195Z,3.20
2023-04-16T15:45:33.077Z,3.67
2023-04-16T15:48:01.933Z,2.93
2023-04-16T15:50:31.056Z,2.87
2023-04-16T15:53:01.228Z,3.57
2023-04-16T15:55:30.612Z,3.20
2023-04-16T15:57:59.422Z,3.80
2023-04-16T16:00:28.383Z,3.43
2023-04-16T16:02:58.357Z,3.50
2023-04-16T16:05:27.286Z,3.30
2023-04-16T16:07:56.111Z,3.60
2023-04-16T16:10:26.525Z,3.63
2023-04-16T16:12:55.334Z,3.53
2023-04-16T16:15:24.206Z,3.60
2023-04-16T16:17:53.611Z,3.87
2023-04-16T16:20:23.455Z,3.20
2023-04-16T16:22:53.858Z,3.80
2023-04-16T16:25:23.356Z,3.53
2023-04-16T16:27:53.610Z,3.50
2023-04-16T16:30:22.510Z,3.60
2023-04-16T16:32:51.277Z,4.20
2023-04-16T16:35:20.404Z,4.67
2023-04-16T16:37:49.198Z,4.10
2023-04-16T16:40:18.001Z,4.30
2023-04-16T16:42:47.253Z,4.30
2023-04-16T16:45:17.898Z,4.20
2023-04-16T16:47:48.878Z,4.40
2023-04-16T16:50:18.028Z,4.90
2023-04-16T16:52:47.930Z,10.80
2023-04-16T16:55:18.823Z,6.93
2023-04-16T16:57:48.946Z,5.60
2023-04-16T17:00:21.576Z,7.30
2023-04-16T17:02:51.991Z,6.00
2023-04-16T17:05:22.258Z,6.00
2023-04-16T17:07:51.176Z,6.07
2023-04-16T17:10:21.341Z,6.57
2023-04-16T17:12:51.982Z,6.37
2023-04-16T17:15:23.357Z,6.20
2023-04-16T17:17:52.250Z,8.43
2023-04-16T17:20:21.123Z,7.90
2023-04-16T17:22:51.224Z,7.10
2023-04-16T17:25:20.365Z,10.30
2023-04-16T17:27:50.409Z,10.13
2023-04-16T17:30:20.932Z,8.80
2023-04-16T17:32:53.956Z,10.33
2023-04-16T17:35:27.430Z,12.33
2023-04-16T17:37:59.034Z,9.13
2023-04-16T17:40:29.175Z,9.53
2023-04-16T17:42:58.297Z,9.80
2023-04-16T17:45:27.303Z,10.67
2023-04-16T17:47:57.630Z,11.00
2023-04-16T17:50:28.502Z,10.60
2023-04-16T17:52:58.170Z,10.13
2023-04-16T17:55:27.104Z,10.83
2023-04-16T17:57:56.024Z,11.70
2023-04-16T18:00:26.035Z,12.23
2023-04-16T18:02:56.976Z,11.37
2023-04-16T18:05:26.198Z,12.13
2023-04-16T18:07:55.480Z,11.50
2023-04-16T18:10:24.567Z,11.33
2023-04-16T18:12:53.468Z,11.17
2023-04-16T18:15:23.269Z,11.97
2023-04-16T18:17:51.985Z,11.93
2023-04-16T18:20:22.415Z,11.73
2023-04-16T18:22:51.199Z,12.50
2023-04-16T18:25:29.458Z,12.67
2023-04-16T18:28:03.770Z,13.13
2023-04-16T18:30:32.778Z,13.47
2023-04-16T18:35:34.856Z,13.33
2023-04-16T18:38:05.042Z,12.83
2023-04-16T18:40:36.610Z,13.53
2023-04-16T18:43:05.791Z,13.40
2023-04-16T18:45:37.133Z,12.40
2023-04-16T18:48:06.493Z,11.90
2023-04-16T18:50:37.167Z,11.33
2023-04-16T18:53:05.878Z,11.10
2023-04-16T18:55:34.602Z,7.47
2023-04-16T18:58:03.408Z,6.37
2023-04-16T19:00:32.114Z,6.50
2023-04-16T19:03:05.691Z,5.97
2023-04-16T19:06:24.026Z,6.43
2023-04-16T19:08:55.947Z,5.73
2023-04-16T19:11:24.753Z,5.13
2023-04-16T19:13:55.777Z,5.93
2023-04-16T19:16:24.635Z,5.17
2023-04-16T19:18:53.500Z,5.27
2023-04-16T19:21:24.223Z,5.93
2023-04-16T19:23:54.324Z,7.10
2023-04-16T19:26:23.104Z,6.03
2023-04-16T19:28:51.964Z,6.23
2023-04-16T19:31:21.040Z,7.10
2023-04-16T19:33:58.112Z,7.17
2023-04-16T19:36:29.206Z,7.13
2023-04-16T19:38:58.041Z,7.67
2023-04-16T19:41:26.804Z,7.57
2023-04-16T19:43:56.751Z,6.97
2023-04-16T19:46:25.958Z,7.23
2023-04-16T19:48:54.695Z,6.43
2023-04-16T19:51:23.417Z,6.10
2023-04-16T19:53:54.993Z,5.07
2023-04-16T19:56:24.019Z,5.40
2023-04-16T19:58:52.760Z,5.33
2023-04-16T20:01:21.581Z,5.23
2023-04-16T20:03:50.431Z,5.30
2023-04-16T20:06:19.124Z,5.93
2023-04-16T20:08:48.020Z,5.80
2023-04-16T20:11:18.823Z,5.10
2023-04-16T20:13:48.542Z,5.57
2023-04-16T20:16:17.586Z,7.33
2023-04-16T20:18:46.302Z,5.10
2023-04-16T20:21:15.299Z,4.87
2023-04-16T20:23:43.990Z,4.57
2023-04-16T20:26:18.370Z,5.23
2023-04-16T20:28:47.181Z,5.23
2023-04-16T20:31:15.952Z,5.37
2023-04-16T20:33:44.919Z,5.40
2023-04-16T20:36:13.675Z,5.50
2023-04-16T20:38:43.695Z,5.30
2023-04-16T20:41:16.895Z,4.77
2023-04-16T20:43:50.146Z,5.80
2023-04-16T20:46:19.728Z,5.00
2023-04-16T20:48:49.466Z,5.03
2023-04-16T20:51:18.711Z,4.73
2023-04-16T20:53:47.357Z,5.10
2023-04-16T20:56:16.019Z,5.20
2023-04-16T20:58:46.492Z,6.00
2023-04-16T21:01:15.589Z,7.00
2023-04-16T21:03:44.522Z,5.77
2023-04-16T21:06:14.499Z,6.17
2023-04-16T21:08:43.172Z,7.80
2023-04-16T21:11:12.433Z,5.90
2023-04-16T21:13:41.173Z,6.20
2023-04-16T21:16:12.557Z,6.13
2023-04-16T21:18:41.619Z,6.77
2023-04-16T21:21:10.350Z,7.17
2023-04-16T21:23:38.998Z,8.07
2023-04-16T21:26:08.853Z,8.23
2023-04-16T21:28:37.660Z,7.93
2023-04-16T21:31:06.713Z,7.40
2023-04-16T21:33:36.879Z,7.33
2023-04-16T21:36:05.987Z,6.73
2023-04-16T21:38:34.683Z,7.10
2023-04-16T21:41:03.840Z,7.30
2023-04-16T21:43:32.659Z,7.00
2023-04-16T21:46:01.665Z,7.47
2023-04-16T21:48:30.404Z,7.00
2023-04-16T21:51:06.600Z,7.60
2023-04-16T21:53:36.980Z,7.33
2023-04-16T21:56:06.233Z,7.80
2023-04-16T21:58:35.019Z,7.10
2023-04-16T22:01:03.822Z,7.57
2023-04-16T22:03:33.647Z,7.90
2023-04-16T22:06:05.371Z,7.60
2023-04-16T22:08:34.710Z,8.20
2023-04-16T22:11:04.518Z,8.27
2023-04-16T22:13:33.442Z,8.03
2023-04-16T22:16:02.553Z,8.07
2023-04-16T22:18:33.849Z,8.00
2023-04-16T22:21:05.472Z,8.30
2023-04-16T22:23:34.333Z,8.27
2023-04-16T22:26:04.172Z,8.63
2023-04-16T22:28:32.900Z,8.57
2023-04-16T22:31:01.666Z,8.70
2023-04-16T22:33:31.155Z,9.13
2023-04-16T22:36:01.322Z,9.40
2023-04-16T22:38:31.537Z,9.77
2023-04-16T22:41:00.195Z,9.70
2023-04-16T22:43:30.004Z,10.23
2023-04-16T22:46:06.758Z,10.30
2023-04-16T22:48:38.187Z,9.70
2023-04-16T22:51:09.949Z,9.43
2023-04-16T22:53:40.032Z,9.20
2023-04-16T22:56:09.295Z,8.73
2023-04-16T22:58:38.484Z,9.70
2023-04-16T23:01:07.324Z,9.60
2023-04-16T23:03:36.195Z,8.90
2023-04-16T23:06:05.193Z,9.20
2023-04-16T23:08:34.007Z,9.67
2023-04-16T23:11:04.309Z,10.20
2023-04-16T23:13:33.073Z,9.67
2023-04-16T23:16:02.194Z,9.73
2023-04-16T23:18:31.385Z,9.63
2023-04-16T23:21:00.178Z,8.90
2023-04-16T23:23:28.896Z,9.40
2023-04-16T23:25:57.527Z,9.80
2023-04-16T23:28:27.622Z,9.23
2023-04-16T23:30:56.365Z,9.00
2023-04-16T23:33:25.236Z,8.50
2023-04-16T23:35:53.961Z,8.37
2023-04-16T23:38:22.734Z,8.57
2023-04-16T23:40:51.595Z,8.40
2023-04-16T23:43:20.332Z,7.83
2023-04-16T23:45:50.555Z,8.00
2023-04-16T23:48:19.249Z,8.00
2023-04-16T23:50:49.116Z,7.70
2023-04-16T23:53:17.837Z,7.87
2023-04-16T23:55:46.554Z,7.90
2023-04-16T23:58:15.303Z,8.10
